Terminal Aerodrome Forecast
Issued by NWS

Home | Current Version | Previous Version | Text Only | Print | Product List | Glossary On
Versions: 1 2 3 4 5 6 7 8 9 10 11 12 13 14 15 16 17 18 19 20
000
FTUS44 KLZK 071731 AAA
TAFHRO
TAF AMD
KHRO 071731Z 0718/0818 21003KT 5SM TSRA OVC030CB
      TEMPO 0718/0722 1/2SM TSRA
     FM072200 20005KT P6SM VCTS SCT025CB OVC080
      TEMPO 0722/0802 4SM TSRA OVC025CB
     FM080600 18004KT P6SM VCTS SCT025CB BKN250=

USA.gov is the U.S. government's official web portal to all federal, state and local government web resources and services.